createdAt,value
2019-05-22T00:00:39.032Z,35.30
2019-05-22T00:03:10.373Z,36.00
2019-05-22T00:05:41.140Z,35.67
2019-05-22T00:08:11.861Z,33.93
2019-05-22T00:10:44.226Z,34.63
2019-05-22T00:13:15.280Z,35.57
2019-05-22T00:15:48.353Z,35.20
2019-05-22T00:18:18.248Z,35.00
2019-05-22T00:20:49.105Z,35.07
2019-05-22T00:23:19.687Z,34.20
2019-05-22T00:25:49.509Z,36.70
2019-05-22T00:28:19.696Z,36.57
2019-05-22T00:30:50.132Z,35.60
2019-05-22T00:33:19.575Z,35.70
2019-05-22T00:35:50.362Z,35.00
2019-05-22T00:38:21.791Z,36.97
2019-05-22T00:40:57.261Z,34.27
2019-05-22T00:43:34.156Z,35.77
2019-05-22T00:46:09.773Z,33.97
2019-05-22T00:48:42.062Z,34.67
2019-05-22T00:51:14.988Z,34.60
2019-05-22T00:53:51.768Z,36.83
2019-05-22T00:56:29.797Z,36.80
2019-05-22T00:59:16.701Z,34.80
2019-05-22T01:01:47.862Z,38.00
2019-05-22T01:04:19.324Z,34.93
2019-05-22T01:06:48.825Z,36.17
2019-05-22T01:09:20.173Z,36.20
2019-05-22T01:11:51.602Z,34.70
2019-05-22T01:14:21.870Z,35.83
2019-05-22T01:16:52.549Z,35.77
2019-05-22T01:19:24.144Z,37.60
2019-05-22T01:21:55.584Z,36.13
2019-05-22T01:24:25.593Z,37.23
2019-05-22T01:26:55.103Z,36.23
2019-05-22T01:29:25.095Z,34.53
2019-05-22T01:32:07.426Z,35.03
2019-05-22T01:34:38.243Z,36.10
2019-05-22T01:37:11.949Z,34.03
2019-05-22T01:39:51.523Z,33.97
2019-05-22T01:42:25.261Z,34.67
2019-05-22T01:45:05.169Z,34.23
2019-05-22T01:47:38.080Z,35.97
2019-05-22T01:50:09.999Z,35.00
2019-05-22T01:52:40.821Z,36.27
2019-05-22T01:55:13.790Z,35.37
2019-05-22T01:57:44.554Z,35.67
2019-05-22T02:00:15.077Z,36.63
2019-05-22T02:02:44.121Z,37.47
2019-05-22T02:05:15.906Z,35.47
2019-05-22T02:07:45.509Z,35.10
2019-05-22T02:10:27.119Z,34.20
2019-05-22T02:13:03.038Z,32.87
2019-05-22T02:15:35.237Z,31.93
2019-05-22T02:18:07.752Z,32.13
2019-05-22T02:20:39.252Z,31.10
2019-05-22T02:23:08.859Z,33.00
2019-05-22T02:25:39.322Z,31.90
2019-05-22T02:28:11.515Z,31.90
2019-05-22T02:30:43.183Z,30.77
2019-05-22T02:33:14.253Z,31.60
2019-05-22T02:35:43.368Z,32.27
2019-05-22T02:38:13.082Z,33.93
2019-05-22T02:40:44.929Z,35.20
2019-05-22T02:43:16.312Z,34.87
2019-05-22T02:45:45.448Z,33.87
2019-05-22T02:48:15.970Z,35.37
2019-05-22T02:50:46.718Z,35.97
2019-05-22T02:53:17.611Z,34.73
2019-05-22T02:55:48.054Z,36.23
2019-05-22T02:58:20.333Z,34.57
2019-05-22T03:00:59.245Z,33.07
2019-05-22T03:03:30.224Z,32.30
2019-05-22T03:06:00.362Z,32.90
2019-05-22T03:08:49.365Z,30.43
2019-05-22T03:11:20.788Z,30.17
2019-05-22T03:14:06.610Z,28.83
2019-05-22T03:16:51.551Z,26.47
2019-05-22T03:19:33.858Z,27.83
2019-05-22T03:22:07.784Z,27.87
2019-05-22T03:24:37.961Z,26.00
2019-05-22T03:27:07.195Z,27.57
2019-05-22T03:29:42.476Z,28.13
2019-05-22T03:32:12.608Z,28.47
2019-05-22T03:34:41.842Z,31.33
2019-05-22T03:37:11.615Z,32.10
2019-05-22T03:39:41.368Z,31.07
2019-05-22T03:42:12.559Z,32.60
2019-05-22T03:44:41.700Z,33.60
2019-05-22T03:47:13.434Z,31.13
2019-05-22T03:49:43.620Z,29.50
2019-05-22T03:52:13.892Z,33.23
2019-05-22T03:54:43.830Z,32.33
2019-05-22T03:57:14.589Z,32.37
2019-05-22T03:59:45.530Z,29.43
2019-05-22T04:02:15.614Z,29.73
2019-05-22T04:04:47.010Z,29.20
2019-05-22T04:07:20.518Z,29.37
2019-05-22T04:09:52.833Z,73.97
2019-05-22T04:12:22.410Z,70.03
2019-05-22T04:14:52.849Z,49.03
2019-05-22T04:17:24.050Z,34.30
2019-05-22T04:19:54.675Z,30.43
2019-05-22T04:22:23.939Z,30.17
2019-05-22T04:24:53.593Z,30.33
2019-05-22T04:27:23.038Z,29.13
2019-05-22T04:29:52.568Z,32.57
2019-05-22T04:32:23.492Z,32.37
2019-05-22T04:34:52.940Z,34.27
2019-05-22T04:37:22.367Z,36.90
2019-05-22T04:39:52.984Z,34.70
2019-05-22T04:42:23.724Z,34.07
2019-05-22T04:45:15.894Z,31.47
2019-05-22T04:47:57.715Z,95.37
2019-05-22T04:50:29.337Z,120.67
2019-05-22T04:53:00.174Z,32.73
2019-05-22T04:55:31.234Z,31.10
2019-05-22T04:58:06.748Z,27.73
2019-05-22T05:00:37.166Z,27.00
2019-05-22T05:03:06.818Z,27.20
2019-05-22T05:05:50.562Z,38.80
2019-05-22T05:08:19.641Z,29.43
2019-05-22T05:10:50.681Z,28.33
2019-05-22T05:13:20.193Z,26.57
2019-05-22T05:15:49.367Z,26.63
2019-05-22T05:18:18.806Z,27.53
2019-05-22T05:20:48.515Z,27.53
2019-05-22T05:23:17.579Z,25.23
2019-05-22T05:25:47.283Z,24.77
2019-05-22T05:28:16.855Z,25.10
2019-05-22T05:30:45.903Z,26.07
2019-05-22T05:33:15.614Z,27.60
2019-05-22T05:35:45.855Z,28.37
2019-05-22T05:38:15.932Z,29.33
2019-05-22T05:40:46.285Z,32.43
2019-05-22T05:43:16.904Z,49.00
2019-05-22T05:45:48.956Z,31.53
2019-05-22T05:48:20.793Z,29.60
2019-05-22T05:51:09.866Z,42.30
2019-05-22T05:54:10.484Z,46.70
2019-05-22T05:56:41.939Z,26.80
2019-05-22T05:59:12.574Z,26.17
2019-05-22T06:01:44.395Z,24.00
2019-05-22T06:04:16.238Z,25.47
2019-05-22T06:07:00.345Z,25.60
2019-05-22T06:09:29.825Z,26.70
2019-05-22T06:12:05.365Z,26.40
2019-05-22T06:14:35.593Z,27.30
2019-05-22T06:17:18.312Z,51.47
2019-05-22T06:19:51.030Z,28.10
2019-05-22T06:22:20.188Z,34.57
2019-05-22T06:24:52.309Z,24.63
2019-05-22T06:27:25.783Z,22.83
2019-05-22T06:30:11.362Z,22.80
2019-05-22T06:33:01.709Z,21.17
2019-05-22T06:35:35.470Z,20.47
2019-05-22T06:38:33.382Z,20.23
2019-05-22T06:41:02.625Z,20.57
2019-05-22T06:43:37.502Z,20.93
2019-05-22T06:46:07.664Z,21.67
2019-05-22T06:48:37.673Z,22.53
2019-05-22T06:51:19.086Z,20.83
2019-05-22T06:53:37.892Z,20.37
2019-05-22T06:56:07.219Z,20.67
2019-05-22T06:58:36.402Z,20.40
2019-05-22T07:01:06.222Z,19.93
2019-05-22T07:03:35.765Z,19.93
2019-05-22T07:06:04.919Z,20.37
2019-05-22T07:08:34.243Z,22.20
2019-05-22T07:11:04.241Z,22.50
2019-05-22T07:13:34.332Z,21.00
2019-05-22T07:16:04.874Z,23.03
2019-05-22T07:18:34.911Z,23.37
2019-05-22T07:21:05.337Z,22.03
2019-05-22T07:23:34.816Z,24.43
2019-05-22T07:26:04.305Z,21.87
2019-05-22T07:28:33.541Z,22.03
2019-05-22T07:31:04.595Z,20.43
2019-05-22T07:33:35.295Z,21.63
2019-05-22T07:36:10.066Z,21.50
2019-05-22T07:38:36.685Z,21.60
2019-05-22T07:41:08.106Z,20.27
2019-05-22T07:43:41.355Z,19.37
2019-05-22T07:46:09.123Z,17.77
2019-05-22T07:48:38.414Z,16.80
2019-05-22T07:51:08.961Z,15.17
2019-05-22T07:53:38.892Z,15.77
2019-05-22T07:56:11.860Z,16.17
2019-05-22T07:58:43.290Z,17.57
2019-05-22T08:01:13.978Z,17.33
2019-05-22T08:03:46.349Z,19.37
2019-05-22T08:06:16.254Z,20.23
2019-05-22T08:08:46.815Z,21.60
2019-05-22T08:11:15.929Z,20.07
2019-05-22T08:13:46.198Z,20.53
2019-05-22T08:16:16.994Z,19.77
2019-05-22T08:18:46.644Z,20.43
2019-05-22T08:21:15.966Z,19.90
2019-05-22T08:23:45.420Z,21.97
2019-05-22T08:26:16.850Z,18.20
2019-05-22T08:28:47.521Z,19.07
2019-05-22T08:31:20.548Z,17.57
2019-05-22T08:33:50.019Z,17.77
2019-05-22T08:36:19.053Z,15.80
2019-05-22T08:38:48.852Z,16.13
2019-05-22T08:41:20.963Z,17.07
2019-05-22T08:44:13.641Z,16.07
2019-05-22T08:46:23.239Z,16.40
2019-05-22T08:48:53.136Z,16.80
2019-05-22T08:51:23.175Z,15.77
2019-05-22T08:53:53.239Z,18.50
2019-05-22T08:56:23.890Z,16.73
2019-05-22T08:58:54.320Z,16.73
2019-05-22T09:01:24.209Z,17.60
2019-05-22T09:03:54.719Z,18.23
2019-05-22T09:06:24.605Z,18.13
2019-05-22T09:08:53.925Z,19.20
2019-05-22T09:11:23.041Z,19.17
2019-05-22T09:13:52.774Z,20.43
2019-05-22T09:16:22.447Z,19.27
2019-05-22T09:18:52.638Z,19.43
2019-05-22T09:21:22.503Z,18.90
2019-05-22T09:23:53.213Z,19.33
2019-05-22T09:26:23.351Z,18.90
2019-05-22T09:28:52.451Z,26.20
2019-05-22T09:31:21.889Z,19.10
2019-05-22T09:33:51.218Z,18.20
2019-05-22T09:36:21.105Z,20.30
2019-05-22T09:38:52.518Z,21.17
2019-05-22T09:41:22.059Z,20.50
2019-05-22T09:43:51.127Z,20.83
2019-05-22T09:46:20.611Z,21.43
2019-05-22T09:48:50.537Z,20.03
2019-05-22T09:51:20.266Z,21.50
2019-05-22T09:53:51.378Z,20.80
2019-05-22T09:56:21.360Z,21.27
2019-05-22T09:58:51.292Z,20.60
2019-05-22T10:01:20.625Z,20.37
2019-05-22T10:03:50.488Z,20.80
2019-05-22T10:06:21.741Z,20.37
2019-05-22T10:08:51.632Z,20.20
2019-05-22T10:11:21.600Z,19.80
2019-05-22T10:13:51.445Z,19.50
2019-05-22T10:16:20.512Z,19.20
2019-05-22T10:18:52.987Z,20.03
2019-05-22T10:21:22.916Z,19.20
2019-05-22T10:23:52.854Z,19.13
2019-05-22T10:26:23.091Z,19.93
2019-05-22T10:28:53.306Z,19.67
2019-05-22T10:31:22.947Z,20.17
2019-05-22T10:33:52.435Z,20.27
2019-05-22T10:36:22.499Z,21.80
2019-05-22T10:38:51.814Z,22.10
2019-05-22T10:41:21.354Z,21.07
2019-05-22T10:43:50.389Z,21.43
2019-05-22T10:46:20.331Z,20.33
2019-05-22T10:48:50.088Z,20.63
2019-05-22T10:51:19.560Z,19.70
2019-05-22T10:53:49.503Z,21.10
2019-05-22T10:56:18.928Z,20.93
2019-05-22T10:58:48.273Z,20.63
2019-05-22T11:01:18.310Z,20.03
2019-05-22T11:03:47.894Z,20.27
2019-05-22T11:06:18.348Z,20.30
2019-05-22T11:08:47.928Z,19.77
2019-05-22T11:11:17.940Z,19.17
2019-05-22T11:14:00.684Z,18.60
2019-05-22T11:16:19.201Z,19.10
2019-05-22T11:18:48.261Z,18.90
2019-05-22T11:21:17.985Z,18.23
2019-05-22T11:23:52.443Z,19.53
2019-05-22T11:26:18.657Z,18.93
2019-05-22T11:28:49.539Z,19.43
2019-05-22T11:31:18.610Z,18.40
2019-05-22T11:33:48.153Z,17.47
2019-05-22T11:36:18.230Z,17.73
2019-05-22T11:38:47.596Z,17.53
2019-05-22T11:41:17.757Z,17.47
2019-05-22T11:43:47.671Z,16.47
2019-05-22T11:46:17.561Z,16.03
2019-05-22T11:48:46.978Z,15.60
2019-05-22T11:51:16.109Z,15.90
2019-05-22T11:53:45.263Z,14.87
2019-05-22T11:56:14.449Z,14.37
2019-05-22T11:58:43.861Z,15.33
2019-05-22T12:01:13.842Z,15.30
2019-05-22T12:03:43.422Z,14.53
2019-05-22T12:06:13.633Z,14.50
2019-05-22T12:08:43.221Z,14.53
2019-05-22T12:11:15.815Z,14.60
2019-05-22T12:13:45.513Z,15.37
2019-05-22T12:16:15.227Z,15.53
2019-05-22T12:18:44.905Z,14.80
2019-05-22T12:21:14.133Z,16.17
2019-05-22T12:23:44.449Z,14.40
2019-05-22T12:26:13.610Z,13.70
2019-05-22T12:28:42.951Z,14.83
2019-05-22T12:31:12.777Z,13.60
2019-05-22T12:33:41.984Z,13.20
2019-05-22T12:36:14.026Z,12.43
2019-05-22T12:38:43.491Z,11.20
2019-05-22T12:41:15.025Z,10.70
2019-05-22T12:43:45.141Z,10.53
2019-05-22T12:46:14.890Z,11.20
2019-05-22T12:48:45.653Z,12.10
2019-05-22T12:51:17.414Z,11.20
2019-05-22T12:53:46.674Z,11.77
2019-05-22T12:56:17.566Z,10.67
2019-05-22T12:58:47.374Z,11.13
2019-05-22T13:01:17.814Z,9.93
2019-05-22T13:03:48.462Z,10.73
2019-05-22T13:06:17.626Z,9.80
2019-05-22T13:08:47.102Z,10.80
2019-05-22T13:11:16.725Z,10.67
2019-05-22T13:13:46.995Z,10.50
2019-05-22T13:16:17.114Z,10.87
2019-05-22T13:18:47.431Z,10.57
2019-05-22T13:21:20.792Z,9.20
2019-05-22T13:23:51.609Z,10.03
2019-05-22T13:26:23.452Z,10.53
2019-05-22T13:28:55.009Z,10.07
2019-05-22T13:31:24.705Z,10.27
2019-05-22T13:33:55.550Z,9.17
2019-05-22T13:36:25.224Z,9.20
2019-05-22T13:38:54.953Z,10.63
2019-05-22T13:41:24.578Z,9.80
2019-05-22T13:43:55.173Z,9.27
2019-05-22T13:46:24.270Z,9.57
2019-05-22T13:48:53.473Z,9.00
2019-05-22T13:51:23.649Z,9.27
2019-05-22T13:53:53.859Z,9.57
2019-05-22T13:56:25.559Z,9.07
2019-05-22T13:58:56.320Z,8.60
2019-05-22T14:01:26.542Z,8.87
2019-05-22T14:03:56.545Z,8.50
2019-05-22T14:06:27.599Z,8.77
2019-05-22T14:08:57.978Z,10.70
2019-05-22T14:11:29.129Z,11.97
2019-05-22T14:13:58.704Z,14.33
2019-05-22T14:16:28.839Z,10.30
2019-05-22T14:18:58.202Z,9.53
2019-05-22T14:21:27.536Z,9.67
2019-05-22T14:23:56.737Z,11.10
2019-05-22T14:26:29.741Z,9.03
2019-05-22T14:28:57.183Z,14.73
2019-05-22T14:31:26.401Z,7.93
2019-05-22T14:33:55.519Z,8.33
2019-05-22T14:36:26.480Z,20.37
2019-05-22T14:38:57.281Z,11.60
2019-05-22T14:41:26.793Z,9.27
2019-05-22T14:43:56.687Z,8.83
2019-05-22T14:46:26.258Z,10.00
2019-05-22T14:48:55.728Z,8.90
2019-05-22T14:51:26.541Z,9.17
2019-05-22T14:53:58.730Z,10.33
2019-05-22T14:56:28.261Z,9.57
2019-05-22T14:58:58.205Z,17.37
2019-05-22T15:01:29.080Z,10.30
2019-05-22T15:03:58.815Z,12.13
2019-05-22T15:06:28.429Z,14.20
2019-05-22T15:08:58.233Z,9.20
2019-05-22T15:11:28.721Z,9.30
2019-05-22T15:13:57.939Z,10.67
2019-05-22T15:16:28.156Z,10.07
2019-05-22T15:18:57.667Z,11.40
2019-05-22T15:21:27.689Z,12.67
2019-05-22T15:23:58.270Z,9.97
2019-05-22T15:26:28.454Z,10.13
2019-05-22T15:28:58.146Z,10.00
2019-05-22T15:31:27.479Z,10.27
2019-05-22T15:33:57.025Z,10.33
2019-05-22T15:36:27.260Z,9.50
2019-05-22T15:38:57.726Z,8.83
2019-05-22T15:41:28.884Z,17.93
2019-05-22T15:43:59.348Z,9.80
2019-05-22T15:46:31.387Z,9.47
2019-05-22T15:49:02.056Z,12.17
2019-05-22T15:51:33.738Z,10.50
2019-05-22T15:54:07.040Z,8.83
2019-05-22T15:56:39.526Z,9.70
2019-05-22T15:59:11.583Z,9.53
2019-05-22T16:01:42.764Z,8.67
2019-05-22T16:04:14.930Z,9.20
2019-05-22T16:06:44.193Z,8.50
2019-05-22T16:09:16.109Z,8.27
2019-05-22T16:11:47.751Z,8.50
2019-05-22T16:14:17.980Z,9.30
2019-05-22T16:16:49.419Z,10.55
2019-05-22T16:19:19.963Z,16.03
2019-05-22T16:21:54.177Z,8.37
2019-05-22T16:24:23.844Z,10.20
2019-05-22T16:26:53.314Z,8.20
2019-05-22T16:29:24.622Z,8.47
2019-05-22T16:31:56.270Z,8.90
2019-05-22T16:34:28.516Z,8.00
2019-05-22T16:37:03.230Z,8.67
2019-05-22T16:39:30.243Z,8.37
2019-05-22T16:41:59.917Z,12.73
2019-05-22T16:44:29.451Z,11.53
2019-05-22T16:46:59.204Z,8.60
2019-05-22T16:49:28.636Z,10.57
2019-05-22T16:51:59.773Z,9.00
2019-05-22T16:54:31.848Z,15.37
2019-05-22T16:57:02.276Z,9.10
2019-05-22T16:59:36.950Z,9.20
2019-05-22T17:02:06.881Z,8.70
2019-05-22T17:04:36.695Z,7.87
2019-05-22T17:07:06.628Z,7.33
2019-05-22T17:09:37.419Z,7.33
2019-05-22T17:12:08.650Z,7.70
2019-05-22T17:14:38.183Z,8.83
2019-05-22T17:17:09.926Z,9.10
2019-05-22T17:19:39.658Z,10.60
2019-05-22T17:22:09.499Z,8.97
2019-05-22T17:24:39.629Z,8.17
2019-05-22T17:27:11.728Z,8.20
2019-05-22T17:29:41.512Z,8.10
2019-05-22T17:32:12.523Z,7.90
2019-05-22T17:34:42.277Z,7.43
2019-05-22T17:37:14.901Z,7.50
2019-05-22T17:39:46.704Z,7.23
2019-05-22T17:42:18.287Z,8.10
2019-05-22T17:44:49.994Z,7.83
2019-05-22T17:47:21.848Z,7.20
2019-05-22T17:49:52.102Z,7.43
2019-05-22T17:52:23.277Z,7.47
2019-05-22T17:54:53.612Z,7.57
2019-05-22T17:57:24.086Z,7.67
2019-05-22T17:59:54.508Z,7.07
2019-05-22T18:02:25.286Z,7.20
2019-05-22T18:04:54.450Z,7.37
2019-05-22T18:07:24.053Z,7.07
2019-05-22T18:09:53.133Z,7.83
2019-05-22T18:12:22.565Z,9.60
2019-05-22T18:14:52.219Z,8.87
2019-05-22T18:17:21.403Z,8.27
2019-05-22T18:19:50.505Z,7.93
2019-05-22T18:22:20.315Z,8.57
2019-05-22T18:24:50.132Z,7.67
2019-05-22T18:27:19.522Z,6.97
2019-05-22T18:29:49.314Z,6.60
2019-05-22T18:32:19.211Z,6.90
2019-05-22T18:34:48.257Z,7.10
2019-05-22T18:37:17.444Z,7.93
2019-05-22T18:39:46.483Z,7.60
2019-05-22T18:42:16.604Z,7.70
2019-05-22T18:44:45.657Z,7.33
2019-05-22T18:47:14.935Z,10.73
2019-05-22T18:49:45.387Z,8.63
2019-05-22T18:52:14.473Z,11.70
2019-05-22T18:54:43.796Z,10.33
2019-05-22T18:57:12.940Z,140.67
2019-05-22T18:59:42.383Z,43.97
2019-05-22T19:02:11.617Z,16.13
2019-05-22T19:04:41.522Z,13.87
2019-05-22T19:07:11.036Z,12.77
2019-05-22T19:09:40.895Z,10.73
2019-05-22T19:12:10.098Z,10.33
2019-05-22T19:14:39.397Z,10.90
2019-05-22T19:17:08.707Z,7.60
2019-05-22T19:19:38.509Z,9.67
2019-05-22T19:22:08.117Z,42.43
2019-05-22T19:24:37.302Z,16.83
2019-05-22T19:27:06.818Z,9.53
2019-05-22T19:29:37.983Z,8.43
2019-05-22T19:32:07.334Z,7.00
2019-05-22T19:34:36.840Z,6.90
2019-05-22T19:37:06.137Z,7.10
2019-05-22T19:39:36.043Z,7.47
2019-05-22T19:42:06.231Z,6.67
2019-05-22T19:44:35.407Z,7.87
2019-05-22T19:47:05.400Z,6.87
2019-05-22T19:49:35.313Z,9.93
2019-05-22T19:52:06.340Z,40.67
2019-05-22T19:54:36.713Z,24.60
2019-05-22T19:57:06.577Z,21.10
2019-05-22T19:59:36.395Z,31.90
2019-05-22T20:02:05.642Z,10.00
2019-05-22T20:04:36.156Z,11.87
2019-05-22T20:07:07.824Z,9.33
2019-05-22T20:09:39.071Z,8.80
2019-05-22T20:12:08.683Z,8.63
2019-05-22T20:14:38.398Z,9.17
2019-05-22T20:17:08.004Z,9.90
2019-05-22T20:19:37.177Z,8.80
2019-05-22T20:22:06.675Z,7.77
2019-05-22T20:24:36.305Z,7.87
2019-05-22T20:27:09.609Z,18.57
2019-05-22T20:29:37.039Z,42.60
2019-05-22T20:32:07.858Z,21.57
2019-05-22T20:34:37.453Z,17.20
2019-05-22T20:37:06.863Z,9.50
2019-05-22T20:39:37.281Z,10.43
2019-05-22T20:42:07.757Z,7.20
2019-05-22T20:44:38.113Z,10.00
2019-05-22T20:47:07.777Z,12.33
2019-05-22T20:49:38.805Z,18.50
2019-05-22T20:52:10.983Z,16.27
2019-05-22T20:54:40.994Z,14.90
2019-05-22T20:57:11.970Z,10.83
2019-05-22T20:59:42.420Z,12.13
2019-05-22T21:02:12.415Z,11.50
2019-05-22T21:04:43.796Z,11.43
2019-05-22T21:07:13.914Z,8.83
2019-05-22T21:09:44.407Z,9.07
2019-05-22T21:12:14.994Z,9.53
2019-05-22T21:14:44.159Z,10.70
2019-05-22T21:17:15.742Z,12.73
2019-05-22T21:19:47.141Z,13.63
2019-05-22T21:22:18.603Z,14.27
2019-05-22T21:24:49.759Z,9.53
2019-05-22T21:27:20.125Z,11.17
2019-05-22T21:29:49.483Z,9.20
2019-05-22T21:32:19.838Z,10.03
2019-05-22T21:34:50.119Z,10.40
2019-05-22T21:37:20.292Z,10.57
2019-05-22T21:39:50.719Z,10.97
2019-05-22T21:42:21.123Z,10.33
2019-05-22T21:44:50.527Z,10.47
2019-05-22T21:47:21.078Z,10.20
2019-05-22T21:49:52.447Z,10.93
2019-05-22T21:52:22.557Z,10.50
2019-05-22T21:54:52.813Z,10.93
2019-05-22T21:57:21.944Z,10.60
2019-05-22T21:59:52.074Z,10.50
2019-05-22T22:02:25.856Z,9.93
2019-05-22T22:04:55.185Z,10.30
2019-05-22T22:07:24.408Z,9.40
2019-05-22T22:09:54.625Z,9.80
2019-05-22T22:12:23.834Z,10.07
2019-05-22T22:14:53.248Z,9.53
2019-05-22T22:17:24.047Z,20.07
2019-05-22T22:19:54.659Z,17.53
2019-05-22T22:22:27.114Z,19.33
2019-05-22T22:24:56.728Z,16.03
2019-05-22T22:27:27.289Z,10.73
2019-05-22T22:29:57.389Z,16.33
2019-05-22T22:32:28.615Z,10.33
2019-05-22T22:34:59.759Z,11.57
2019-05-22T22:37:31.282Z,12.27
2019-05-22T22:40:02.079Z,10.87
2019-05-22T22:42:36.778Z,10.83
2019-05-22T22:45:07.614Z,10.27
2019-05-22T22:47:38.736Z,10.20
2019-05-22T22:50:09.702Z,9.80
2019-05-22T22:52:40.633Z,9.67
2019-05-22T22:55:13.229Z,10.13
2019-05-22T22:57:42.730Z,9.87
2019-05-22T23:00:15.482Z,10.30
2019-05-22T23:02:46.532Z,10.90
2019-05-22T23:05:17.105Z,10.70
2019-05-22T23:07:48.948Z,10.20
2019-05-22T23:10:20.259Z,10.77
2019-05-22T23:12:51.211Z,10.43
2019-05-22T23:15:22.305Z,11.30
2019-05-22T23:17:53.267Z,10.30
2019-05-22T23:20:21.322Z,11.17
2019-05-22T23:22:49.487Z,10.50
2019-05-22T23:25:20.325Z,10.80
2019-05-22T23:27:51.045Z,10.77
2019-05-22T23:30:21.401Z,10.50
2019-05-22T23:32:52.384Z,11.13
2019-05-22T23:35:22.834Z,10.90
2019-05-22T23:37:51.924Z,11.23
2019-05-22T23:40:27.665Z,10.70
2019-05-22T23:42:58.949Z,10.53
2019-05-22T23:45:28.338Z,10.53
2019-05-22T23:48:03.997Z,11.50
2019-05-22T23:50:36.782Z,12.10
2019-05-22T23:53:07.824Z,11.67
2019-05-22T23:55:38.272Z,11.17
2019-05-22T23:58:09.834Z,11.00
